sensor_id;sensor_type;location;lat;lon;timestamp;P1;durP1;ratioP1;P2;durP2;ratioP2
6642;SDS011;3357;48.050;7.800;2022-09-21T00:02:11;3.53;;;1.40;;
6642;SDS011;3357;48.050;7.800;2022-09-21T00:04:37;1.83;;;1.50;;
6642;SDS011;3357;48.050;7.800;2022-09-21T00:07:02;3.57;;;1.87;;
6642;SDS011;3357;48.050;7.800;2022-09-21T00:09:27;1.60;;;1.40;;
6642;SDS011;3357;48.050;7.800;2022-09-21T00:11:53;3.23;;;1.93;;
6642;SDS011;3357;48.050;7.800;2022-09-21T00:14:18;1.70;;;1.20;;
6642;SDS011;3357;48.050;7.800;2022-09-21T00:16:43;2.27;;;1.43;;
6642;SDS011;3357;48.050;7.800;2022-09-21T00:19:09;2.73;;;1.20;;
6642;SDS011;3357;48.050;7.800;2022-09-21T00:21:34;2.53;;;1.20;;
6642;SDS011;3357;48.050;7.800;2022-09-21T00:24:02;5.07;;;1.37;;
6642;SDS011;3357;48.050;7.800;2022-09-21T00:26:28;3.60;;;2.00;;
6642;SDS011;3357;48.050;7.800;2022-09-21T00:28:55;1.47;;;1.37;;
6642;SDS011;3357;48.050;7.800;2022-09-21T00:31:22;2.67;;;1.30;;
6642;SDS011;3357;48.050;7.800;2022-09-21T00:33:47;3.20;;;1.30;;
6642;SDS011;3357;48.050;7.800;2022-09-21T00:36:14;2.40;;;1.30;;
6642;SDS011;3357;48.050;7.800;2022-09-21T00:38:41;2.97;;;1.27;;
6642;SDS011;3357;48.050;7.800;2022-09-21T00:41:07;1.83;;;1.23;;
6642;SDS011;3357;48.050;7.800;2022-09-21T00:43:34;4.63;;;1.30;;
6642;SDS011;3357;48.050;7.800;2022-09-21T00:46:02;2.00;;;1.80;;
6642;SDS011;3357;48.050;7.800;2022-09-21T00:48:29;2.23;;;1.80;;
6642;SDS011;3357;48.050;7.800;2022-09-21T00:50:56;2.80;;;1.67;;
6642;SDS011;3357;48.050;7.800;2022-09-21T00:53:25;2.97;;;1.40;;
6642;SDS011;3357;48.050;7.800;2022-09-21T00:55:53;4.30;;;1.83;;
6642;SDS011;3357;48.050;7.800;2022-09-21T00:58:21;3.43;;;1.73;;
6642;SDS011;3357;48.050;7.800;2022-09-21T01:01:00;5.03;;;1.63;;
6642;SDS011;3357;48.050;7.800;2022-09-21T01:03:26;4.80;;;1.70;;
6642;SDS011;3357;48.050;7.800;2022-09-21T01:05:53;2.03;;;1.33;;
6642;SDS011;3357;48.050;7.800;2022-09-21T01:08:18;3.17;;;1.90;;
6642;SDS011;3357;48.050;7.800;2022-09-21T01:11:07;3.33;;;1.50;;
6642;SDS011;3357;48.050;7.800;2022-09-21T01:13:53;4.77;;;1.70;;
6642;SDS011;3357;48.050;7.800;2022-09-21T01:24:51;3.97;;;1.70;;
6642;SDS011;3357;48.050;7.800;2022-09-21T01:27:34;2.80;;;1.23;;
6642;SDS011;3357;48.050;7.800;2022-09-21T01:30:05;3.13;;;1.50;;
6642;SDS011;3357;48.050;7.800;2022-09-21T01:32:35;3.37;;;1.60;;
6642;SDS011;3357;48.050;7.800;2022-09-21T01:35:08;6.53;;;1.97;;
6642;SDS011;3357;48.050;7.800;2022-09-21T01:37:46;3.33;;;1.70;;
6642;SDS011;3357;48.050;7.800;2022-09-21T01:40:16;4.40;;;1.80;;
6642;SDS011;3357;48.050;7.800;2022-09-21T01:42:44;5.50;;;1.50;;
6642;SDS011;3357;48.050;7.800;2022-09-21T01:45:11;4.23;;;1.50;;
6642;SDS011;3357;48.050;7.800;2022-09-21T01:47:40;4.70;;;1.60;;
6642;SDS011;3357;48.050;7.800;2022-09-21T01:50:07;1.87;;;1.37;;
6642;SDS011;3357;48.050;7.800;2022-09-21T01:53:36;2.67;;;1.70;;
6642;SDS011;3357;48.050;7.800;2022-09-21T01:55:35;2.50;;;1.60;;
6642;SDS011;3357;48.050;7.800;2022-09-21T02:01:11;4.00;;;1.70;;
6642;SDS011;3357;48.050;7.800;2022-09-21T02:03:50;3.30;;;1.40;;
6642;SDS011;3357;48.050;7.800;2022-09-21T02:06:18;4.30;;;1.97;;
6642;SDS011;3357;48.050;7.800;2022-09-21T02:08:43;2.40;;;1.70;;
6642;SDS011;3357;48.050;7.800;2022-09-21T02:11:10;2.60;;;1.40;;
6642;SDS011;3357;48.050;7.800;2022-09-21T02:13:38;2.50;;;1.50;;
6642;SDS011;3357;48.050;7.800;2022-09-21T02:18:42;1.57;;;1.47;;
6642;SDS011;3357;48.050;7.800;2022-09-21T02:26:54;2.00;;;1.40;;
6642;SDS011;3357;48.050;7.800;2022-09-21T02:32:05;2.20;;;1.10;;
6642;SDS011;3357;48.050;7.800;2022-09-21T02:34:34;2.23;;;1.23;;
6642;SDS011;3357;48.050;7.800;2022-09-21T02:37:07;8.70;;;1.70;;
6642;SDS011;3357;48.050;7.800;2022-09-21T02:39:37;4.10;;;1.80;;
6642;SDS011;3357;48.050;7.800;2022-09-21T02:42:15;8.67;;;1.70;;
6642;SDS011;3357;48.050;7.800;2022-09-21T02:48:14;2.90;;;1.63;;
6642;SDS011;3357;48.050;7.800;2022-09-21T02:50:45;1.90;;;1.40;;
6642;SDS011;3357;48.050;7.800;2022-09-21T02:53:26;9.53;;;1.90;;
6642;SDS011;3357;48.050;7.800;2022-09-21T02:55:54;3.40;;;1.60;;
6642;SDS011;3357;48.050;7.800;2022-09-21T02:58:20;2.57;;;1.53;;
6642;SDS011;3357;48.050;7.800;2022-09-21T03:00:46;2.70;;;1.57;;
6642;SDS011;3357;48.050;7.800;2022-09-21T03:03:19;8.17;;;1.43;;
6642;SDS011;3357;48.050;7.800;2022-09-21T03:05:47;1.63;;;1.53;;
6642;SDS011;3357;48.050;7.800;2022-09-21T03:08:13;4.60;;;1.60;;
6642;SDS011;3357;48.050;7.800;2022-09-21T03:10:39;2.50;;;1.40;;
6642;SDS011;3357;48.050;7.800;2022-09-21T03:13:05;3.57;;;1.30;;
6642;SDS011;3357;48.050;7.800;2022-09-21T03:15:33;4.30;;;1.70;;
6642;SDS011;3357;48.050;7.800;2022-09-21T03:18:03;2.90;;;1.50;;
6642;SDS011;3357;48.050;7.800;2022-09-21T03:20:31;6.30;;;1.30;;
6642;SDS011;3357;48.050;7.800;2022-09-21T03:22:57;2.00;;;1.30;;
6642;SDS011;3357;48.050;7.800;2022-09-21T03:25:23;1.97;;;1.60;;
6642;SDS011;3357;48.050;7.800;2022-09-21T03:27:48;3.30;;;1.70;;
6642;SDS011;3357;48.050;7.800;2022-09-21T03:30:16;2.20;;;1.60;;
6642;SDS011;3357;48.050;7.800;2022-09-21T03:32:44;4.60;;;1.40;;
6642;SDS011;3357;48.050;7.800;2022-09-21T03:35:09;4.00;;;2.10;;
6642;SDS011;3357;48.050;7.800;2022-09-21T03:37:34;2.27;;;1.70;;
6642;SDS011;3357;48.050;7.800;2022-09-21T03:39:59;1.97;;;1.63;;
6642;SDS011;3357;48.050;7.800;2022-09-21T03:42:25;6.80;;;1.77;;
6642;SDS011;3357;48.050;7.800;2022-09-21T03:44:50;5.00;;;2.10;;
6642;SDS011;3357;48.050;7.800;2022-09-21T03:47:16;4.33;;;2.13;;
6642;SDS011;3357;48.050;7.800;2022-09-21T03:49:41;3.97;;;2.73;;
6642;SDS011;3357;48.050;7.800;2022-09-21T03:52:06;6.10;;;3.70;;
6642;SDS011;3357;48.050;7.800;2022-09-21T03:54:31;10.63;;;4.70;;
6642;SDS011;3357;48.050;7.800;2022-09-21T03:56:57;6.27;;;3.17;;
6642;SDS011;3357;48.050;7.800;2022-09-21T03:59:22;8.23;;;3.10;;
6642;SDS011;3357;48.050;7.800;2022-09-21T04:01:47;5.43;;;2.40;;
6642;SDS011;3357;48.050;7.800;2022-09-21T04:04:13;4.40;;;2.33;;
6642;SDS011;3357;48.050;7.800;2022-09-21T04:06:38;2.33;;;2.13;;
6642;SDS011;3357;48.050;7.800;2022-09-21T04:09:05;6.83;;;2.20;;
6642;SDS011;3357;48.050;7.800;2022-09-21T04:11:30;4.23;;;2.20;;
6642;SDS011;3357;48.050;7.800;2022-09-21T04:13:57;2.07;;;1.53;;
6642;SDS011;3357;48.050;7.800;2022-09-21T04:16:23;2.50;;;2.10;;
6642;SDS011;3357;48.050;7.800;2022-09-21T04:18:51;2.53;;;2.10;;
6642;SDS011;3357;48.050;7.800;2022-09-21T04:21:17;5.93;;;1.70;;
6642;SDS011;3357;48.050;7.800;2022-09-21T04:23:43;6.17;;;2.53;;
6642;SDS011;3357;48.050;7.800;2022-09-21T04:28:46;3.60;;;1.73;;
6642;SDS011;3357;48.050;7.800;2022-09-21T04:31:12;2.97;;;2.37;;
6642;SDS011;3357;48.050;7.800;2022-09-21T04:33:37;3.37;;;2.27;;
6642;SDS011;3357;48.050;7.800;2022-09-21T04:36:02;4.50;;;2.60;;
6642;SDS011;3357;48.050;7.800;2022-09-21T04:38:29;4.10;;;2.50;;
6642;SDS011;3357;48.050;7.800;2022-09-21T04:40:56;2.37;;;2.00;;
6642;SDS011;3357;48.050;7.800;2022-09-21T04:43:22;5.90;;;2.03;;
6642;SDS011;3357;48.050;7.800;2022-09-21T04:45:47;7.27;;;2.60;;
6642;SDS011;3357;48.050;7.800;2022-09-21T04:48:14;4.87;;;2.50;;
6642;SDS011;3357;48.050;7.800;2022-09-21T04:50:39;1.90;;;1.80;;
6642;SDS011;3357;48.050;7.800;2022-09-21T04:53:04;4.07;;;1.87;;
6642;SDS011;3357;48.050;7.800;2022-09-21T04:55:30;6.00;;;2.40;;
6642;SDS011;3357;48.050;7.800;2022-09-21T04:57:55;3.70;;;2.30;;
6642;SDS011;3357;48.050;7.800;2022-09-21T05:00:20;2.10;;;2.00;;
6642;SDS011;3357;48.050;7.800;2022-09-21T05:02:46;2.00;;;1.80;;
6642;SDS011;3357;48.050;7.800;2022-09-21T05:05:11;3.53;;;2.10;;
6642;SDS011;3357;48.050;7.800;2022-09-21T05:07:37;5.30;;;2.03;;
6642;SDS011;3357;48.050;7.800;2022-09-21T05:10:02;2.50;;;2.30;;
6642;SDS011;3357;48.050;7.800;2022-09-21T05:12:32;2.23;;;2.13;;
6642;SDS011;3357;48.050;7.800;2022-09-21T05:14:58;5.00;;;1.93;;
6642;SDS011;3357;48.050;7.800;2022-09-21T05:17:24;3.53;;;2.80;;
6642;SDS011;3357;48.050;7.800;2022-09-21T05:19:49;5.70;;;2.30;;
6642;SDS011;3357;48.050;7.800;2022-09-21T05:22:15;3.03;;;2.17;;
6642;SDS011;3357;48.050;7.800;2022-09-21T05:24:40;4.07;;;2.47;;
6642;SDS011;3357;48.050;7.800;2022-09-21T05:27:05;3.27;;;2.63;;
6642;SDS011;3357;48.050;7.800;2022-09-21T05:29:31;6.70;;;3.00;;
6642;SDS011;3357;48.050;7.800;2022-09-21T05:32:02;3.83;;;2.80;;
6642;SDS011;3357;48.050;7.800;2022-09-21T05:34:52;12.17;;;3.83;;
6642;SDS011;3357;48.050;7.800;2022-09-21T05:40:08;12.20;;;4.07;;
6642;SDS011;3357;48.050;7.800;2022-09-21T05:42:35;8.20;;;5.50;;
6642;SDS011;3357;48.050;7.800;2022-09-21T05:45:00;7.77;;;3.93;;
6642;SDS011;3357;48.050;7.800;2022-09-21T05:47:37;13.50;;;5.07;;
6642;SDS011;3357;48.050;7.800;2022-09-21T05:50:19;8.43;;;4.60;;
6642;SDS011;3357;48.050;7.800;2022-09-21T05:53:03;13.83;;;6.67;;
6642;SDS011;3357;48.050;7.800;2022-09-21T05:58:04;30.00;;;7.80;;
6642;SDS011;3357;48.050;7.800;2022-09-21T06:01:37;26.63;;;8.70;;
6642;SDS011;3357;48.050;7.800;2022-09-21T06:03:46;37.60;;;9.00;;
6642;SDS011;3357;48.050;7.800;2022-09-21T06:06:16;13.30;;;7.10;;
6642;SDS011;3357;48.050;7.800;2022-09-21T06:08:42;19.53;;;8.77;;
6642;SDS011;3357;48.050;7.800;2022-09-21T06:11:07;13.70;;;6.93;;
6642;SDS011;3357;48.050;7.800;2022-09-21T06:13:39;15.50;;;7.40;;
6642;SDS011;3357;48.050;7.800;2022-09-21T06:16:05;11.60;;;6.60;;
6642;SDS011;3357;48.050;7.800;2022-09-21T06:18:35;18.60;;;9.70;;
6642;SDS011;3357;48.050;7.800;2022-09-21T06:21:01;23.43;;;7.83;;
6642;SDS011;3357;48.050;7.800;2022-09-21T06:23:26;20.33;;;7.17;;
6642;SDS011;3357;48.050;7.800;2022-09-21T06:25:51;19.47;;;7.20;;
6642;SDS011;3357;48.050;7.800;2022-09-21T06:28:17;12.97;;;6.80;;
6642;SDS011;3357;48.050;7.800;2022-09-21T06:30:42;24.80;;;7.70;;
6642;SDS011;3357;48.050;7.800;2022-09-21T06:33:09;24.93;;;8.80;;
6642;SDS011;3357;48.050;7.800;2022-09-21T06:35:34;15.57;;;7.60;;
6642;SDS011;3357;48.050;7.800;2022-09-21T06:38:01;16.50;;;7.47;;
6642;SDS011;3357;48.050;7.800;2022-09-21T06:40:31;20.93;;;8.47;;
6642;SDS011;3357;48.050;7.800;2022-09-21T06:42:58;14.77;;;7.87;;
6642;SDS011;3357;48.050;7.800;2022-09-21T06:45:24;22.00;;;8.97;;
6642;SDS011;3357;48.050;7.800;2022-09-21T06:47:50;15.20;;;7.70;;
6642;SDS011;3357;48.050;7.800;2022-09-21T06:50:16;14.00;;;7.67;;
6642;SDS011;3357;48.050;7.800;2022-09-21T06:52:41;14.37;;;7.33;;
6642;SDS011;3357;48.050;7.800;2022-09-21T06:55:07;11.57;;;7.77;;
6642;SDS011;3357;48.050;7.800;2022-09-21T06:57:33;13.97;;;7.93;;
6642;SDS011;3357;48.050;7.800;2022-09-21T06:59:59;14.03;;;7.63;;
6642;SDS011;3357;48.050;7.800;2022-09-21T07:02:24;13.50;;;8.80;;
6642;SDS011;3357;48.050;7.800;2022-09-21T07:04:50;10.13;;;7.80;;
6642;SDS011;3357;48.050;7.800;2022-09-21T07:07:15;15.40;;;7.27;;
6642;SDS011;3357;48.050;7.800;2022-09-21T07:09:40;10.87;;;7.50;;
6642;SDS011;3357;48.050;7.800;2022-09-21T07:12:07;11.63;;;7.50;;
6642;SDS011;3357;48.050;7.800;2022-09-21T07:14:32;11.50;;;7.97;;
6642;SDS011;3357;48.050;7.800;2022-09-21T07:16:58;13.10;;;7.07;;
6642;SDS011;3357;48.050;7.800;2022-09-21T07:19:24;14.70;;;8.50;;
6642;SDS011;3357;48.050;7.800;2022-09-21T07:21:53;11.90;;;7.70;;
6642;SDS011;3357;48.050;7.800;2022-09-21T07:24:21;16.40;;;8.17;;
6642;SDS011;3357;48.050;7.800;2022-09-21T07:26:46;14.93;;;7.90;;
6642;SDS011;3357;48.050;7.800;2022-09-21T07:29:11;22.50;;;8.03;;
6642;SDS011;3357;48.050;7.800;2022-09-21T07:31:38;10.97;;;7.20;;
6642;SDS011;3357;48.050;7.800;2022-09-21T07:34:04;10.97;;;8.10;;
6642;SDS011;3357;48.050;7.800;2022-09-21T07:36:30;11.90;;;6.80;;
6642;SDS011;3357;48.050;7.800;2022-09-21T07:38:55;8.27;;;6.13;;
6642;SDS011;3357;48.050;7.800;2022-09-21T07:41:21;10.47;;;5.83;;
6642;SDS011;3357;48.050;7.800;2022-09-21T07:43:48;8.80;;;5.13;;
6642;SDS011;3357;48.050;7.800;2022-09-21T07:46:13;6.83;;;4.87;;
6642;SDS011;3357;48.050;7.800;2022-09-21T07:48:42;7.70;;;5.07;;
6642;SDS011;3357;48.050;7.800;2022-09-21T07:51:09;8.47;;;5.57;;
6642;SDS011;3357;48.050;7.800;2022-09-21T07:53:36;8.13;;;5.60;;
6642;SDS011;3357;48.050;7.800;2022-09-21T07:56:02;7.43;;;4.23;;
6642;SDS011;3357;48.050;7.800;2022-09-21T07:58:31;12.20;;;4.50;;
6642;SDS011;3357;48.050;7.800;2022-09-21T08:01:17;10.90;;;4.43;;
6642;SDS011;3357;48.050;7.800;2022-09-21T08:03:49;7.40;;;4.77;;
6642;SDS011;3357;48.050;7.800;2022-09-21T08:06:15;4.20;;;3.70;;
6642;SDS011;3357;48.050;7.800;2022-09-21T08:08:43;8.03;;;3.70;;
6642;SDS011;3357;48.050;7.800;2022-09-21T08:11:13;5.37;;;3.27;;
6642;SDS011;3357;48.050;7.800;2022-09-21T08:13:43;8.40;;;3.93;;
6642;SDS011;3357;48.050;7.800;2022-09-21T08:16:08;10.80;;;3.83;;
6642;SDS011;3357;48.050;7.800;2022-09-21T08:18:37;6.40;;;3.30;;
6642;SDS011;3357;48.050;7.800;2022-09-21T08:21:05;4.83;;;3.10;;
6642;SDS011;3357;48.050;7.800;2022-09-21T08:23:30;5.00;;;3.00;;
6642;SDS011;3357;48.050;7.800;2022-09-21T08:26:03;4.77;;;2.93;;
6642;SDS011;3357;48.050;7.800;2022-09-21T08:28:32;6.10;;;4.60;;
6642;SDS011;3357;48.050;7.800;2022-09-21T08:31:00;12.23;;;3.23;;
6642;SDS011;3357;48.050;7.800;2022-09-21T08:33:26;4.90;;;2.70;;
6642;SDS011;3357;48.050;7.800;2022-09-21T08:35:53;3.67;;;3.30;;
6642;SDS011;3357;48.050;7.800;2022-09-21T08:38:54;4.47;;;3.13;;
6642;SDS011;3357;48.050;7.800;2022-09-21T08:43:51;5.67;;;3.00;;
6642;SDS011;3357;48.050;7.800;2022-09-21T08:46:22;3.60;;;2.80;;
6642;SDS011;3357;48.050;7.800;2022-09-21T08:51:25;3.00;;;2.30;;
6642;SDS011;3357;48.050;7.800;2022-09-21T08:56:23;2.33;;;2.13;;
6642;SDS011;3357;48.050;7.800;2022-09-21T08:58:51;6.40;;;2.60;;
6642;SDS011;3357;48.050;7.800;2022-09-21T09:03:52;3.90;;;2.30;;
6642;SDS011;3357;48.050;7.800;2022-09-21T09:08:58;2.40;;;2.20;;
6642;SDS011;3357;48.050;7.800;2022-09-21T09:14:40;5.80;;;1.60;;
6642;SDS011;3357;48.050;7.800;2022-09-21T09:22:10;2.20;;;1.70;;
6642;SDS011;3357;48.050;7.800;2022-09-21T09:24:42;1.90;;;1.80;;
6642;SDS011;3357;48.050;7.800;2022-09-21T09:27:17;2.17;;;1.97;;
6642;SDS011;3357;48.050;7.800;2022-09-21T09:32:33;4.87;;;1.87;;
6642;SDS011;3357;48.050;7.800;2022-09-21T09:36:01;3.93;;;1.57;;
6642;SDS011;3357;48.050;7.800;2022-09-21T09:38:28;2.83;;;1.60;;
6642;SDS011;3357;48.050;7.800;2022-09-21T09:51:47;4.30;;;1.40;;
6642;SDS011;3357;48.050;7.800;2022-09-21T09:54:13;5.00;;;1.67;;
6642;SDS011;3357;48.050;7.800;2022-09-21T09:56:41;2.00;;;1.50;;
6642;SDS011;3357;48.050;7.800;2022-09-21T10:01:59;9.13;;;1.90;;
6642;SDS011;3357;48.050;7.800;2022-09-21T10:04:28;5.73;;;1.73;;
6642;SDS011;3357;48.050;7.800;2022-09-21T10:06:55;2.50;;;1.47;;
6642;SDS011;3357;48.050;7.800;2022-09-21T10:09:30;4.63;;;1.60;;
6642;SDS011;3357;48.050;7.800;2022-09-21T10:11:59;2.40;;;1.20;;
6642;SDS011;3357;48.050;7.800;2022-09-21T10:14:25;7.13;;;2.50;;
6642;SDS011;3357;48.050;7.800;2022-09-21T10:16:53;3.50;;;1.40;;
6642;SDS011;3357;48.050;7.800;2022-09-21T10:19:20;5.43;;;1.73;;
6642;SDS011;3357;48.050;7.800;2022-09-21T10:21:47;2.43;;;1.37;;
6642;SDS011;3357;48.050;7.800;2022-09-21T10:24:25;7.87;;;1.67;;
6642;SDS011;3357;48.050;7.800;2022-09-21T10:26:54;2.50;;;1.33;;
6642;SDS011;3357;48.050;7.800;2022-09-21T10:34:37;5.40;;;1.63;;
6642;SDS011;3357;48.050;7.800;2022-09-21T10:37:22;2.50;;;1.17;;
6642;SDS011;3357;48.050;7.800;2022-09-21T10:39:52;3.13;;;1.50;;
6642;SDS011;3357;48.050;7.800;2022-09-21T10:42:19;1.63;;;1.10;;
6642;SDS011;3357;48.050;7.800;2022-09-21T10:47:33;2.73;;;1.50;;
6642;SDS011;3357;48.050;7.800;2022-09-21T10:52:47;5.90;;;0.90;;
6642;SDS011;3357;48.050;7.800;2022-09-21T10:55:19;3.53;;;1.10;;
6642;SDS011;3357;48.050;7.800;2022-09-21T10:57:47;4.00;;;1.20;;
6642;SDS011;3357;48.050;7.800;2022-09-21T11:02:45;2.03;;;1.80;;
6642;SDS011;3357;48.050;7.800;2022-09-21T11:07:56;2.03;;;1.17;;
6642;SDS011;3357;48.050;7.800;2022-09-21T11:15:57;2.80;;;1.00;;
6642;SDS011;3357;48.050;7.800;2022-09-21T11:18:48;2.53;;;0.90;;
6642;SDS011;3357;48.050;7.800;2022-09-21T11:26:37;3.80;;;1.83;;
6642;SDS011;3357;48.050;7.800;2022-09-21T12:11:57;2.30;;;0.90;;
6642;SDS011;3357;48.050;7.800;2022-09-21T12:14:35;2.60;;;0.97;;
6642;SDS011;3357;48.050;7.800;2022-09-21T12:23:00;1.47;;;0.80;;
6642;SDS011;3357;48.050;7.800;2022-09-21T12:25:33;1.00;;;0.83;;
6642;SDS011;3357;48.050;7.800;2022-09-21T12:28:12;2.60;;;0.90;;
6642;SDS011;3357;48.050;7.800;2022-09-21T12:30:42;1.27;;;0.60;;
6642;SDS011;3357;48.050;7.800;2022-09-21T12:33:26;3.27;;;0.83;;
6642;SDS011;3357;48.050;7.800;2022-09-21T12:35:59;2.77;;;0.80;;
6642;SDS011;3357;48.050;7.800;2022-09-21T12:38:27;0.80;;;0.70;;
6642;SDS011;3357;48.050;7.800;2022-09-21T12:43:52;4.47;;;0.90;;
6642;SDS011;3357;48.050;7.800;2022-09-21T12:46:33;0.80;;;0.80;;
6642;SDS011;3357;48.050;7.800;2022-09-21T12:49:08;1.67;;;0.70;;
6642;SDS011;3357;48.050;7.800;2022-09-21T12:51:41;2.90;;;0.70;;
6642;SDS011;3357;48.050;7.800;2022-09-21T12:59:48;3.27;;;0.80;;
6642;SDS011;3357;48.050;7.800;2022-09-21T13:06:19;1.40;;;0.73;;
6642;SDS011;3357;48.050;7.800;2022-09-21T13:08:34;1.10;;;0.90;;
6642;SDS011;3357;48.050;7.800;2022-09-21T13:11:04;1.27;;;1.10;;
6642;SDS011;3357;48.050;7.800;2022-09-21T13:13:52;14.50;;;3.10;;
6642;SDS011;3357;48.050;7.800;2022-09-21T13:16:30;2.70;;;0.80;;
6642;SDS011;3357;48.050;7.800;2022-09-21T13:18:58;0.70;;;0.70;;
6642;SDS011;3357;48.050;7.800;2022-09-21T13:21:29;2.60;;;1.00;;
6642;SDS011;3357;48.050;7.800;2022-09-21T13:26:38;0.60;;;0.60;;
6642;SDS011;3357;48.050;7.800;2022-09-21T13:29:23;3.13;;;0.80;;
6642;SDS011;3357;48.050;7.800;2022-09-21T13:34:57;2.50;;;1.10;;
6642;SDS011;3357;48.050;7.800;2022-09-21T13:40:58;1.53;;;1.10;;
6642;SDS011;3357;48.050;7.800;2022-09-21T13:49:20;1.40;;;0.90;;
6642;SDS011;3357;48.050;7.800;2022-09-21T13:54:37;1.27;;;0.80;;
6642;SDS011;3357;48.050;7.800;2022-09-21T14:10:59;1.00;;;1.00;;
6642;SDS011;3357;48.050;7.800;2022-09-21T14:13:28;5.23;;;0.90;;
6642;SDS011;3357;48.050;7.800;2022-09-21T14:18:53;0.80;;;0.80;;
6642;SDS011;3357;48.050;7.800;2022-09-21T14:21:18;1.93;;;0.70;;
6642;SDS011;3357;48.050;7.800;2022-09-21T14:29:37;0.60;;;0.60;;
6642;SDS011;3357;48.050;7.800;2022-09-21T14:31:59;0.70;;;0.60;;
6642;SDS011;3357;48.050;7.800;2022-09-21T14:34:26;1.73;;;0.80;;
6642;SDS011;3357;48.050;7.800;2022-09-21T14:36:58;0.80;;;0.60;;
6642;SDS011;3357;48.050;7.800;2022-09-21T14:39:29;1.20;;;1.20;;
6642;SDS011;3357;48.050;7.800;2022-09-21T14:42:07;0.90;;;0.80;;
6642;SDS011;3357;48.050;7.800;2022-09-21T14:44:37;2.33;;;0.60;;
6642;SDS011;3357;48.050;7.800;2022-09-21T15:00:43;1.30;;;0.80;;
6642;SDS011;3357;48.050;7.800;2022-09-21T15:12:40;2.93;;;0.70;;
6642;SDS011;3357;48.050;7.800;2022-09-21T15:18:11;4.83;;;0.80;;
6642;SDS011;3357;48.050;7.800;2022-09-21T15:20:41;1.33;;;0.80;;
6642;SDS011;3357;48.050;7.800;2022-09-21T15:23:14;1.20;;;0.67;;
6642;SDS011;3357;48.050;7.800;2022-09-21T15:25:43;1.27;;;0.70;;
6642;SDS011;3357;48.050;7.800;2022-09-21T15:28:22;0.63;;;0.63;;
6642;SDS011;3357;48.050;7.800;2022-09-21T15:30:50;0.97;;;0.60;;
6642;SDS011;3357;48.050;7.800;2022-09-21T15:33:20;0.60;;;0.60;;
6642;SDS011;3357;48.050;7.800;2022-09-21T15:35:46;0.83;;;0.70;;
6642;SDS011;3357;48.050;7.800;2022-09-21T15:38:29;1.30;;;0.70;;
6642;SDS011;3357;48.050;7.800;2022-09-21T15:40:57;1.93;;;0.70;;
6642;SDS011;3357;48.050;7.800;2022-09-21T15:43:22;1.20;;;0.77;;
6642;SDS011;3357;48.050;7.800;2022-09-21T15:45:49;0.70;;;0.70;;
6642;SDS011;3357;48.050;7.800;2022-09-21T15:48:22;0.70;;;0.67;;
6642;SDS011;3357;48.050;7.800;2022-09-21T15:50:59;0.70;;;0.70;;
6642;SDS011;3357;48.050;7.800;2022-09-21T15:53:51;2.90;;;1.00;;
6642;SDS011;3357;48.050;7.800;2022-09-21T15:56:20;1.40;;;1.30;;
6642;SDS011;3357;48.050;7.800;2022-09-21T15:58:47;1.70;;;1.40;;
6642;SDS011;3357;48.050;7.800;2022-09-21T16:01:18;2.00;;;1.10;;
6642;SDS011;3357;48.050;7.800;2022-09-21T16:03:46;5.47;;;0.80;;
6642;SDS011;3357;48.050;7.800;2022-09-21T16:08:48;0.73;;;0.67;;
6642;SDS011;3357;48.050;7.800;2022-09-21T16:22:20;1.27;;;0.97;;
6642;SDS011;3357;48.050;7.800;2022-09-21T16:24:50;0.70;;;0.70;;
6642;SDS011;3357;48.050;7.800;2022-09-21T16:27:17;3.53;;;0.60;;
6642;SDS011;3357;48.050;7.800;2022-09-21T16:29:44;3.27;;;0.80;;
6642;SDS011;3357;48.050;7.800;2022-09-21T16:34:47;0.70;;;0.70;;
6642;SDS011;3357;48.050;7.800;2022-09-21T16:39:45;0.70;;;0.63;;
6642;SDS011;3357;48.050;7.800;2022-09-21T16:42:11;0.90;;;0.90;;
6642;SDS011;3357;48.050;7.800;2022-09-21T16:44:36;3.03;;;0.90;;
6642;SDS011;3357;48.050;7.800;2022-09-21T16:47:08;2.00;;;1.00;;
6642;SDS011;3357;48.050;7.800;2022-09-21T16:49:52;2.80;;;0.87;;
6642;SDS011;3357;48.050;7.800;2022-09-21T16:52:21;2.00;;;0.70;;
6642;SDS011;3357;48.050;7.800;2022-09-21T16:54:47;0.70;;;0.70;;
6642;SDS011;3357;48.050;7.800;2022-09-21T16:57:13;0.60;;;0.60;;
6642;SDS011;3357;48.050;7.800;2022-09-21T16:59:39;1.33;;;0.70;;
6642;SDS011;3357;48.050;7.800;2022-09-21T17:02:05;1.47;;;0.70;;
6642;SDS011;3357;48.050;7.800;2022-09-21T17:04:32;1.10;;;1.03;;
6642;SDS011;3357;48.050;7.800;2022-09-21T17:06:58;1.07;;;0.80;;
6642;SDS011;3357;48.050;7.800;2022-09-21T17:09:34;2.97;;;1.47;;
6642;SDS011;3357;48.050;7.800;2022-09-21T17:12:05;1.67;;;0.93;;
6642;SDS011;3357;48.050;7.800;2022-09-21T17:14:32;1.30;;;1.00;;
6642;SDS011;3357;48.050;7.800;2022-09-21T17:17:20;4.93;;;0.90;;
6642;SDS011;3357;48.050;7.800;2022-09-21T17:19:47;0.90;;;0.80;;
6642;SDS011;3357;48.050;7.800;2022-09-21T17:22:22;2.20;;;1.40;;
6642;SDS011;3357;48.050;7.800;2022-09-21T17:24:49;1.13;;;0.80;;
6642;SDS011;3357;48.050;7.800;2022-09-21T17:27:15;0.87;;;0.80;;
6642;SDS011;3357;48.050;7.800;2022-09-21T17:29:42;1.53;;;0.70;;
6642;SDS011;3357;48.050;7.800;2022-09-21T17:32:14;0.70;;;0.70;;
6642;SDS011;3357;48.050;7.800;2022-09-21T17:34:40;1.70;;;1.03;;
6642;SDS011;3357;48.050;7.800;2022-09-21T17:37:06;1.63;;;0.80;;
6642;SDS011;3357;48.050;7.800;2022-09-21T17:39:33;1.73;;;0.70;;
6642;SDS011;3357;48.050;7.800;2022-09-21T17:42:11;1.43;;;0.80;;
6642;SDS011;3357;48.050;7.800;2022-09-21T17:47:26;2.00;;;0.87;;
6642;SDS011;3357;48.050;7.800;2022-09-21T17:49:53;3.17;;;0.90;;
6642;SDS011;3357;48.050;7.800;2022-09-21T17:52:21;1.33;;;1.10;;
6642;SDS011;3357;48.050;7.800;2022-09-21T17:55:07;1.00;;;0.90;;
6642;SDS011;3357;48.050;7.800;2022-09-21T18:00:22;1.10;;;0.70;;
6642;SDS011;3357;48.050;7.800;2022-09-21T18:02:51;1.00;;;0.80;;
6642;SDS011;3357;48.050;7.800;2022-09-21T18:05:22;0.80;;;0.80;;
6642;SDS011;3357;48.050;7.800;2022-09-21T18:07:49;1.53;;;0.77;;
6642;SDS011;3357;48.050;7.800;2022-09-21T18:10:19;2.30;;;0.70;;
6642;SDS011;3357;48.050;7.800;2022-09-21T18:13:05;1.23;;;0.90;;
6642;SDS011;3357;48.050;7.800;2022-09-21T18:21:44;1.13;;;0.70;;
6642;SDS011;3357;48.050;7.800;2022-09-21T18:24:22;2.73;;;1.87;;
6642;SDS011;3357;48.050;7.800;2022-09-21T18:26:51;4.30;;;3.37;;
6642;SDS011;3357;48.050;7.800;2022-09-21T18:29:25;7.80;;;4.50;;
6642;SDS011;3357;48.050;7.800;2022-09-21T18:46:05;6.07;;;1.00;;
6642;SDS011;3357;48.050;7.800;2022-09-21T18:48:41;1.50;;;0.90;;
6642;SDS011;3357;48.050;7.800;2022-09-21T18:54:19;1.00;;;0.90;;
6642;SDS011;3357;48.050;7.800;2022-09-21T18:56:46;0.80;;;0.80;;
6642;SDS011;3357;48.050;7.800;2022-09-21T18:59:12;1.00;;;0.90;;
6642;SDS011;3357;48.050;7.800;2022-09-21T19:01:39;1.27;;;1.00;;
6642;SDS011;3357;48.050;7.800;2022-09-21T19:04:06;1.10;;;1.00;;
6642;SDS011;3357;48.050;7.800;2022-09-21T19:18:12;1.97;;;1.63;;
6642;SDS011;3357;48.050;7.800;2022-09-21T19:20:51;1.93;;;1.30;;
6642;SDS011;3357;48.050;7.800;2022-09-21T19:23:38;2.77;;;1.40;;
6642;SDS011;3357;48.050;7.800;2022-09-21T19:31:43;2.13;;;0.83;;
6642;SDS011;3357;48.050;7.800;2022-09-21T19:34:13;1.83;;;0.80;;
6642;SDS011;3357;48.050;7.800;2022-09-21T19:36:40;0.80;;;0.70;;
6642;SDS011;3357;48.050;7.800;2022-09-21T19:39:07;6.93;;;1.07;;
6642;SDS011;3357;48.050;7.800;2022-09-21T19:41:40;0.80;;;0.80;;
6642;SDS011;3357;48.050;7.800;2022-09-21T19:49:42;1.50;;;1.00;;
6642;SDS011;3357;48.050;7.800;2022-09-21T19:52:12;1.10;;;1.00;;
6642;SDS011;3357;48.050;7.800;2022-09-21T19:57:27;1.73;;;0.80;;
6642;SDS011;3357;48.050;7.800;2022-09-21T20:00:13;1.40;;;1.30;;
6642;SDS011;3357;48.050;7.800;2022-09-21T20:05:38;1.60;;;0.83;;
6642;SDS011;3357;48.050;7.800;2022-09-21T20:08:02;1.23;;;1.13;;
6642;SDS011;3357;48.050;7.800;2022-09-21T20:16:17;0.80;;;0.80;;
6642;SDS011;3357;48.050;7.800;2022-09-21T20:18:59;1.67;;;0.90;;
6642;SDS011;3357;48.050;7.800;2022-09-21T20:21:39;1.10;;;1.10;;
6642;SDS011;3357;48.050;7.800;2022-09-21T20:26:54;1.00;;;1.00;;
6642;SDS011;3357;48.050;7.800;2022-09-21T20:29:20;1.03;;;0.80;;
6642;SDS011;3357;48.050;7.800;2022-09-21T20:31:47;1.13;;;0.80;;
6642;SDS011;3357;48.050;7.800;2022-09-21T20:34:13;3.03;;;0.87;;
6642;SDS011;3357;48.050;7.800;2022-09-21T20:36:39;2.20;;;0.80;;
6642;SDS011;3357;48.050;7.800;2022-09-21T20:39:07;0.70;;;0.70;;